sensor_id;sensor_type;location;lat;lon;timestamp;P1;durP1;ratioP1;P2;durP2;ratioP2
16828;SDS011;8531;48.078;11.968;2024-02-28T00:01:47;16.23;;;12.32;;
16828;SDS011;8531;48.078;11.968;2024-02-28T00:04:16;18.15;;;13.68;;
16828;SDS011;8531;48.078;11.968;2024-02-28T00:06:42;17.88;;;11.93;;
16828;SDS011;8531;48.078;11.968;2024-02-28T00:09:07;17.80;;;12.82;;
16828;SDS011;8531;48.078;11.968;2024-02-28T00:11:33;17.30;;;12.18;;
16828;SDS011;8531;48.078;11.968;2024-02-28T00:13:58;16.92;;;11.95;;
16828;SDS011;8531;48.078;11.968;2024-02-28T00:16:27;18.63;;;12.60;;
16828;SDS011;8531;48.078;11.968;2024-02-28T00:18:53;14.52;;;10.45;;
16828;SDS011;8531;48.078;11.968;2024-02-28T00:21:19;15.27;;;11.35;;
16828;SDS011;8531;48.078;11.968;2024-02-28T00:23:45;15.95;;;12.05;;
16828;SDS011;8531;48.078;11.968;2024-02-28T00:26:13;15.85;;;10.68;;
16828;SDS011;8531;48.078;11.968;2024-02-28T00:28:39;12.82;;;10.73;;
16828;SDS011;8531;48.078;11.968;2024-02-28T00:31:04;18.55;;;12.05;;
16828;SDS011;8531;48.078;11.968;2024-02-28T00:33:30;16.95;;;11.95;;
16828;SDS011;8531;48.078;11.968;2024-02-28T00:35:56;14.98;;;11.65;;
16828;SDS011;8531;48.078;11.968;2024-02-28T00:38:21;15.27;;;11.82;;
16828;SDS011;8531;48.078;11.968;2024-02-28T00:40:47;14.75;;;11.38;;
16828;SDS011;8531;48.078;11.968;2024-02-28T00:43:13;15.63;;;11.48;;
16828;SDS011;8531;48.078;11.968;2024-02-28T00:45:38;14.52;;;11.20;;
16828;SDS011;8531;48.078;11.968;2024-02-28T00:48:04;14.75;;;12.10;;
16828;SDS011;8531;48.078;11.968;2024-02-28T00:50:30;16.65;;;12.07;;
16828;SDS011;8531;48.078;11.968;2024-02-28T00:52:56;15.57;;;11.75;;
16828;SDS011;8531;48.078;11.968;2024-02-28T00:55:21;16.45;;;12.00;;
16828;SDS011;8531;48.078;11.968;2024-02-28T00:57:47;16.00;;;12.30;;
16828;SDS011;8531;48.078;11.968;2024-02-28T01:00:13;16.17;;;12.60;;
16828;SDS011;8531;48.078;11.968;2024-02-28T01:02:39;16.48;;;12.52;;
16828;SDS011;8531;48.078;11.968;2024-02-28T01:05:06;19.80;;;12.88;;
16828;SDS011;8531;48.078;11.968;2024-02-28T01:07:32;16.85;;;12.23;;
16828;SDS011;8531;48.078;11.968;2024-02-28T01:09:58;17.20;;;12.48;;
16828;SDS011;8531;48.078;11.968;2024-02-28T01:12:24;16.90;;;12.13;;
16828;SDS011;8531;48.078;11.968;2024-02-28T01:14:50;18.17;;;13.02;;
16828;SDS011;8531;48.078;11.968;2024-02-28T01:17:15;17.73;;;12.52;;
16828;SDS011;8531;48.078;11.968;2024-02-28T01:19:41;15.90;;;12.77;;
16828;SDS011;8531;48.078;11.968;2024-02-28T01:22:07;15.80;;;12.98;;
16828;SDS011;8531;48.078;11.968;2024-02-28T01:24:33;18.85;;;12.68;;
16828;SDS011;8531;48.078;11.968;2024-02-28T01:26:59;15.70;;;11.80;;
16828;SDS011;8531;48.078;11.968;2024-02-28T01:29:25;15.40;;;11.90;;
16828;SDS011;8531;48.078;11.968;2024-02-28T01:31:51;15.65;;;12.48;;
16828;SDS011;8531;48.078;11.968;2024-02-28T01:34:16;16.38;;;12.90;;
16828;SDS011;8531;48.078;11.968;2024-02-28T01:36:42;17.10;;;12.73;;
16828;SDS011;8531;48.078;11.968;2024-02-28T01:39:08;18.55;;;13.65;;
16828;SDS011;8531;48.078;11.968;2024-02-28T01:41:33;15.38;;;12.15;;
16828;SDS011;8531;48.078;11.968;2024-02-28T01:43:59;17.83;;;13.88;;
16828;SDS011;8531;48.078;11.968;2024-02-28T01:46:26;18.40;;;13.93;;
16828;SDS011;8531;48.078;11.968;2024-02-28T01:48:55;18.20;;;12.75;;
16828;SDS011;8531;48.078;11.968;2024-02-28T01:51:22;17.75;;;13.15;;
16828;SDS011;8531;48.078;11.968;2024-02-28T01:53:49;18.63;;;14.05;;
16828;SDS011;8531;48.078;11.968;2024-02-28T01:56:17;20.52;;;14.25;;
16828;SDS011;8531;48.078;11.968;2024-02-28T01:58:47;18.67;;;13.75;;
16828;SDS011;8531;48.078;11.968;2024-02-28T02:01:14;19.85;;;14.52;;
16828;SDS011;8531;48.078;11.968;2024-02-28T02:03:40;22.63;;;15.25;;
16828;SDS011;8531;48.078;11.968;2024-02-28T02:06:07;17.33;;;13.93;;
16828;SDS011;8531;48.078;11.968;2024-02-28T02:08:33;19.33;;;14.35;;
16828;SDS011;8531;48.078;11.968;2024-02-28T02:10:59;18.17;;;13.80;;
16828;SDS011;8531;48.078;11.968;2024-02-28T02:13:25;20.33;;;14.60;;
16828;SDS011;8531;48.078;11.968;2024-02-28T02:15:51;20.67;;;13.85;;
16828;SDS011;8531;48.078;11.968;2024-02-28T02:18:16;17.20;;;13.52;;
16828;SDS011;8531;48.078;11.968;2024-02-28T02:20:44;18.10;;;13.63;;
16828;SDS011;8531;48.078;11.968;2024-02-28T02:23:14;18.10;;;13.90;;
16828;SDS011;8531;48.078;11.968;2024-02-28T02:25:46;19.15;;;14.93;;
16828;SDS011;8531;48.078;11.968;2024-02-28T02:28:12;17.63;;;13.82;;
16828;SDS011;8531;48.078;11.968;2024-02-28T02:30:39;20.20;;;13.68;;
16828;SDS011;8531;48.078;11.968;2024-02-28T02:33:05;18.40;;;14.10;;
16828;SDS011;8531;48.078;11.968;2024-02-28T02:35:31;19.10;;;13.88;;
16828;SDS011;8531;48.078;11.968;2024-02-28T02:37:57;19.23;;;14.50;;
16828;SDS011;8531;48.078;11.968;2024-02-28T02:40:23;20.00;;;14.57;;
16828;SDS011;8531;48.078;11.968;2024-02-28T02:42:49;18.85;;;14.75;;
16828;SDS011;8531;48.078;11.968;2024-02-28T02:45:15;18.65;;;13.65;;
16828;SDS011;8531;48.078;11.968;2024-02-28T02:47:41;20.20;;;13.93;;
16828;SDS011;8531;48.078;11.968;2024-02-28T02:50:09;20.20;;;14.57;;
16828;SDS011;8531;48.078;11.968;2024-02-28T02:52:35;17.23;;;13.80;;
16828;SDS011;8531;48.078;11.968;2024-02-28T02:55:01;23.25;;;15.48;;
16828;SDS011;8531;48.078;11.968;2024-02-28T02:57:27;18.58;;;14.27;;
16828;SDS011;8531;48.078;11.968;2024-02-28T02:59:52;16.70;;;13.63;;
16828;SDS011;8531;48.078;11.968;2024-02-28T03:02:18;18.63;;;14.55;;
16828;SDS011;8531;48.078;11.968;2024-02-28T03:04:43;18.27;;;14.27;;
16828;SDS011;8531;48.078;11.968;2024-02-28T03:07:09;19.65;;;14.80;;
16828;SDS011;8531;48.078;11.968;2024-02-28T03:09:35;20.70;;;15.07;;
16828;SDS011;8531;48.078;11.968;2024-02-28T03:12:00;21.30;;;16.17;;
16828;SDS011;8531;48.078;11.968;2024-02-28T03:14:26;20.38;;;15.05;;
16828;SDS011;8531;48.078;11.968;2024-02-28T03:16:52;22.02;;;15.57;;
16828;SDS011;8531;48.078;11.968;2024-02-28T03:19:18;18.55;;;15.15;;
16828;SDS011;8531;48.078;11.968;2024-02-28T03:21:44;18.73;;;14.10;;
16828;SDS011;8531;48.078;11.968;2024-02-28T03:24:10;21.23;;;15.35;;
16828;SDS011;8531;48.078;11.968;2024-02-28T03:26:36;20.88;;;15.15;;
16828;SDS011;8531;48.078;11.968;2024-02-28T03:29:01;18.17;;;14.70;;
16828;SDS011;8531;48.078;11.968;2024-02-28T03:31:27;20.27;;;15.10;;
16828;SDS011;8531;48.078;11.968;2024-02-28T03:33:53;20.48;;;15.23;;
16828;SDS011;8531;48.078;11.968;2024-02-28T03:36:18;21.15;;;15.40;;
16828;SDS011;8531;48.078;11.968;2024-02-28T03:38:44;22.95;;;15.95;;
16828;SDS011;8531;48.078;11.968;2024-02-28T03:41:10;21.27;;;16.08;;
16828;SDS011;8531;48.078;11.968;2024-02-28T03:43:36;23.02;;;15.57;;
16828;SDS011;8531;48.078;11.968;2024-02-28T03:46:01;21.27;;;15.80;;
16828;SDS011;8531;48.078;11.968;2024-02-28T03:48:27;19.67;;;14.80;;
16828;SDS011;8531;48.078;11.968;2024-02-28T03:50:53;25.75;;;16.27;;
16828;SDS011;8531;48.078;11.968;2024-02-28T03:53:18;21.25;;;15.98;;
16828;SDS011;8531;48.078;11.968;2024-02-28T03:55:44;23.58;;;16.08;;
16828;SDS011;8531;48.078;11.968;2024-02-28T03:58:10;23.20;;;16.75;;
16828;SDS011;8531;48.078;11.968;2024-02-28T04:00:36;20.98;;;16.83;;
16828;SDS011;8531;48.078;11.968;2024-02-28T04:03:02;25.02;;;18.48;;
16828;SDS011;8531;48.078;11.968;2024-02-28T04:05:28;24.60;;;18.33;;
16828;SDS011;8531;48.078;11.968;2024-02-28T04:07:54;22.63;;;16.95;;
16828;SDS011;8531;48.078;11.968;2024-02-28T04:10:20;25.88;;;18.65;;
16828;SDS011;8531;48.078;11.968;2024-02-28T04:12:46;25.73;;;18.35;;
16828;SDS011;8531;48.078;11.968;2024-02-28T04:15:12;24.17;;;18.25;;
16828;SDS011;8531;48.078;11.968;2024-02-28T04:17:38;23.50;;;18.27;;
16828;SDS011;8531;48.078;11.968;2024-02-28T04:20:11;26.00;;;18.60;;
16828;SDS011;8531;48.078;11.968;2024-02-28T04:22:37;22.60;;;18.40;;
16828;SDS011;8531;48.078;11.968;2024-02-28T04:25:04;25.38;;;18.23;;
16828;SDS011;8531;48.078;11.968;2024-02-28T04:27:30;24.52;;;17.83;;
16828;SDS011;8531;48.078;11.968;2024-02-28T04:29:56;27.08;;;17.65;;
16828;SDS011;8531;48.078;11.968;2024-02-28T04:32:21;23.98;;;17.27;;
16828;SDS011;8531;48.078;11.968;2024-02-28T04:34:47;24.10;;;18.33;;
16828;SDS011;8531;48.078;11.968;2024-02-28T04:37:13;29.05;;;18.33;;
16828;SDS011;8531;48.078;11.968;2024-02-28T04:39:39;28.33;;;19.55;;
16828;SDS011;8531;48.078;11.968;2024-02-28T04:42:05;24.83;;;18.40;;
16828;SDS011;8531;48.078;11.968;2024-02-28T04:44:31;25.65;;;18.33;;
16828;SDS011;8531;48.078;11.968;2024-02-28T04:46:57;29.05;;;20.08;;
16828;SDS011;8531;48.078;11.968;2024-02-28T04:49:22;28.73;;;19.35;;
16828;SDS011;8531;48.078;11.968;2024-02-28T04:51:48;26.33;;;19.73;;
16828;SDS011;8531;48.078;11.968;2024-02-28T04:54:14;28.10;;;20.77;;
16828;SDS011;8531;48.078;11.968;2024-02-28T04:56:40;28.30;;;20.55;;
16828;SDS011;8531;48.078;11.968;2024-02-28T04:59:06;25.10;;;18.70;;
16828;SDS011;8531;48.078;11.968;2024-02-28T05:01:38;27.75;;;19.95;;
16828;SDS011;8531;48.078;11.968;2024-02-28T05:04:06;24.77;;;18.45;;
16828;SDS011;8531;48.078;11.968;2024-02-28T05:06:33;25.30;;;18.02;;
16828;SDS011;8531;48.078;11.968;2024-02-28T05:08:58;24.73;;;18.02;;
16828;SDS011;8531;48.078;11.968;2024-02-28T05:11:24;26.38;;;19.52;;
16828;SDS011;8531;48.078;11.968;2024-02-28T05:13:50;25.48;;;18.90;;
16828;SDS011;8531;48.078;11.968;2024-02-28T05:16:15;25.88;;;19.52;;
16828;SDS011;8531;48.078;11.968;2024-02-28T05:18:41;26.95;;;18.88;;
16828;SDS011;8531;48.078;11.968;2024-02-28T05:21:09;26.10;;;19.20;;
16828;SDS011;8531;48.078;11.968;2024-02-28T05:23:35;27.48;;;19.90;;
16828;SDS011;8531;48.078;11.968;2024-02-28T05:26:01;26.75;;;19.65;;
16828;SDS011;8531;48.078;11.968;2024-02-28T05:28:31;27.83;;;19.45;;
16828;SDS011;8531;48.078;11.968;2024-02-28T05:31:02;27.05;;;18.98;;
16828;SDS011;8531;48.078;11.968;2024-02-28T05:33:45;27.08;;;19.50;;
16828;SDS011;8531;48.078;11.968;2024-02-28T05:36:10;28.33;;;18.85;;
16828;SDS011;8531;48.078;11.968;2024-02-28T05:38:36;24.27;;;18.65;;
16828;SDS011;8531;48.078;11.968;2024-02-28T05:41:02;25.20;;;18.70;;
16828;SDS011;8531;48.078;11.968;2024-02-28T05:43:27;26.70;;;19.40;;
16828;SDS011;8531;48.078;11.968;2024-02-28T05:45:53;24.98;;;18.23;;
16828;SDS011;8531;48.078;11.968;2024-02-28T05:48:19;27.30;;;20.60;;
16828;SDS011;8531;48.078;11.968;2024-02-28T05:50:45;26.48;;;19.05;;
16828;SDS011;8531;48.078;11.968;2024-02-28T05:53:11;28.90;;;20.30;;
16828;SDS011;8531;48.078;11.968;2024-02-28T05:55:37;27.73;;;20.10;;
16828;SDS011;8531;48.078;11.968;2024-02-28T05:58:02;25.90;;;19.42;;
16828;SDS011;8531;48.078;11.968;2024-02-28T06:00:28;28.73;;;19.73;;
16828;SDS011;8531;48.078;11.968;2024-02-28T06:02:54;28.05;;;20.02;;
16828;SDS011;8531;48.078;11.968;2024-02-28T06:05:19;26.00;;;18.80;;
16828;SDS011;8531;48.078;11.968;2024-02-28T06:07:45;28.05;;;19.23;;
16828;SDS011;8531;48.078;11.968;2024-02-28T06:10:11;27.52;;;19.58;;
16828;SDS011;8531;48.078;11.968;2024-02-28T06:12:36;26.02;;;19.50;;
16828;SDS011;8531;48.078;11.968;2024-02-28T06:15:03;28.52;;;20.10;;
16828;SDS011;8531;48.078;11.968;2024-02-28T06:17:29;28.00;;;19.80;;
16828;SDS011;8531;48.078;11.968;2024-02-28T06:19:55;28.10;;;20.05;;
16828;SDS011;8531;48.078;11.968;2024-02-28T06:22:21;24.15;;;18.60;;
16828;SDS011;8531;48.078;11.968;2024-02-28T06:24:46;30.55;;;19.63;;
16828;SDS011;8531;48.078;11.968;2024-02-28T06:27:12;28.05;;;20.38;;
16828;SDS011;8531;48.078;11.968;2024-02-28T06:29:40;29.42;;;19.95;;
16828;SDS011;8531;48.078;11.968;2024-02-28T06:32:06;28.67;;;20.08;;
16828;SDS011;8531;48.078;11.968;2024-02-28T06:34:32;26.20;;;19.17;;
16828;SDS011;8531;48.078;11.968;2024-02-28T06:36:58;29.55;;;21.17;;
16828;SDS011;8531;48.078;11.968;2024-02-28T06:39:24;27.00;;;19.85;;
16828;SDS011;8531;48.078;11.968;2024-02-28T06:41:49;29.23;;;20.27;;
16828;SDS011;8531;48.078;11.968;2024-02-28T06:44:16;26.63;;;19.85;;
16828;SDS011;8531;48.078;11.968;2024-02-28T06:46:45;26.55;;;18.83;;
16828;SDS011;8531;48.078;11.968;2024-02-28T06:49:11;28.40;;;20.70;;
16828;SDS011;8531;48.078;11.968;2024-02-28T06:51:36;33.22;;;21.17;;
16828;SDS011;8531;48.078;11.968;2024-02-28T06:54:02;28.77;;;20.10;;
16828;SDS011;8531;48.078;11.968;2024-02-28T06:56:30;29.73;;;20.80;;
16828;SDS011;8531;48.078;11.968;2024-02-28T06:58:55;32.72;;;21.80;;
16828;SDS011;8531;48.078;11.968;2024-02-28T07:01:21;41.03;;;23.50;;
16828;SDS011;8531;48.078;11.968;2024-02-28T07:03:47;35.15;;;22.63;;
16828;SDS011;8531;48.078;11.968;2024-02-28T07:06:12;34.83;;;21.77;;
16828;SDS011;8531;48.078;11.968;2024-02-28T07:08:38;34.08;;;22.77;;
16828;SDS011;8531;48.078;11.968;2024-02-28T07:11:04;31.95;;;21.80;;
16828;SDS011;8531;48.078;11.968;2024-02-28T07:13:29;41.05;;;22.60;;
16828;SDS011;8531;48.078;11.968;2024-02-28T07:15:55;43.35;;;22.77;;
16828;SDS011;8531;48.078;11.968;2024-02-28T07:18:23;27.98;;;20.63;;
16828;SDS011;8531;48.078;11.968;2024-02-28T07:20:54;34.55;;;21.88;;
16828;SDS011;8531;48.078;11.968;2024-02-28T07:23:19;35.10;;;22.23;;
16828;SDS011;8531;48.078;11.968;2024-02-28T07:25:45;36.05;;;22.88;;
16828;SDS011;8531;48.078;11.968;2024-02-28T07:28:11;32.25;;;22.08;;
16828;SDS011;8531;48.078;11.968;2024-02-28T07:30:37;34.50;;;21.98;;
16828;SDS011;8531;48.078;11.968;2024-02-28T07:33:04;34.53;;;21.40;;
16828;SDS011;8531;48.078;11.968;2024-02-28T07:35:30;34.50;;;22.05;;
16828;SDS011;8531;48.078;11.968;2024-02-28T07:37:56;35.63;;;21.95;;
16828;SDS011;8531;48.078;11.968;2024-02-28T07:40:21;33.90;;;23.00;;
16828;SDS011;8531;48.078;11.968;2024-02-28T07:42:47;43.50;;;23.52;;
16828;SDS011;8531;48.078;11.968;2024-02-28T07:45:13;32.97;;;21.92;;
16828;SDS011;8531;48.078;11.968;2024-02-28T07:47:38;29.23;;;20.45;;
16828;SDS011;8531;48.078;11.968;2024-02-28T07:50:05;34.33;;;22.10;;
16828;SDS011;8531;48.078;11.968;2024-02-28T07:52:31;34.00;;;21.70;;
16828;SDS011;8531;48.078;11.968;2024-02-28T07:55:00;31.27;;;20.15;;
16828;SDS011;8531;48.078;11.968;2024-02-28T07:57:27;31.42;;;21.73;;
16828;SDS011;8531;48.078;11.968;2024-02-28T07:59:52;30.90;;;21.45;;
16828;SDS011;8531;48.078;11.968;2024-02-28T08:02:18;36.30;;;22.77;;
16828;SDS011;8531;48.078;11.968;2024-02-28T08:04:45;33.38;;;20.98;;
16828;SDS011;8531;48.078;11.968;2024-02-28T08:07:11;34.05;;;22.20;;
16828;SDS011;8531;48.078;11.968;2024-02-28T08:09:37;34.08;;;22.92;;
16828;SDS011;8531;48.078;11.968;2024-02-28T08:12:03;37.15;;;23.75;;
16828;SDS011;8531;48.078;11.968;2024-02-28T08:14:28;34.75;;;23.17;;
16828;SDS011;8531;48.078;11.968;2024-02-28T08:16:54;36.13;;;24.70;;
16828;SDS011;8531;48.078;11.968;2024-02-28T08:19:20;30.92;;;22.30;;
16828;SDS011;8531;48.078;11.968;2024-02-28T08:21:45;31.60;;;22.15;;
16828;SDS011;8531;48.078;11.968;2024-02-28T08:24:11;31.10;;;21.67;;
16828;SDS011;8531;48.078;11.968;2024-02-28T08:26:37;34.22;;;23.50;;
16828;SDS011;8531;48.078;11.968;2024-02-28T08:29:04;35.47;;;22.25;;
16828;SDS011;8531;48.078;11.968;2024-02-28T08:31:29;32.42;;;21.92;;
16828;SDS011;8531;48.078;11.968;2024-02-28T08:33:55;32.13;;;22.63;;
16828;SDS011;8531;48.078;11.968;2024-02-28T08:36:21;33.28;;;22.13;;
16828;SDS011;8531;48.078;11.968;2024-02-28T08:38:46;34.80;;;21.70;;
16828;SDS011;8531;48.078;11.968;2024-02-28T08:41:12;35.30;;;22.65;;
16828;SDS011;8531;48.078;11.968;2024-02-28T08:43:38;36.33;;;23.70;;
16828;SDS011;8531;48.078;11.968;2024-02-28T08:46:05;34.30;;;22.95;;
16828;SDS011;8531;48.078;11.968;2024-02-28T08:48:31;36.25;;;23.20;;
16828;SDS011;8531;48.078;11.968;2024-02-28T08:50:57;35.72;;;23.27;;
16828;SDS011;8531;48.078;11.968;2024-02-28T08:53:23;41.03;;;23.77;;
16828;SDS011;8531;48.078;11.968;2024-02-28T08:55:48;37.22;;;24.55;;
16828;SDS011;8531;48.078;11.968;2024-02-28T08:58:14;43.35;;;25.67;;
16828;SDS011;8531;48.078;11.968;2024-02-28T09:00:44;41.78;;;23.92;;
16828;SDS011;8531;48.078;11.968;2024-02-28T09:03:10;36.72;;;24.15;;
16828;SDS011;8531;48.078;11.968;2024-02-28T09:05:35;34.80;;;24.38;;
16828;SDS011;8531;48.078;11.968;2024-02-28T09:08:01;35.00;;;23.02;;
16828;SDS011;8531;48.078;11.968;2024-02-28T09:10:27;35.95;;;24.67;;
16828;SDS011;8531;48.078;11.968;2024-02-28T09:12:55;37.80;;;24.10;;
16828;SDS011;8531;48.078;11.968;2024-02-28T09:15:20;34.13;;;23.33;;
16828;SDS011;8531;48.078;11.968;2024-02-28T09:17:46;39.60;;;24.90;;
16828;SDS011;8531;48.078;11.968;2024-02-28T09:20:12;37.63;;;23.67;;
16828;SDS011;8531;48.078;11.968;2024-02-28T09:22:38;37.50;;;23.88;;
16828;SDS011;8531;48.078;11.968;2024-02-28T09:25:05;37.58;;;24.52;;
16828;SDS011;8531;48.078;11.968;2024-02-28T09:27:31;38.40;;;24.80;;
16828;SDS011;8531;48.078;11.968;2024-02-28T09:29:58;36.17;;;23.58;;
16828;SDS011;8531;48.078;11.968;2024-02-28T09:32:23;38.25;;;24.58;;
16828;SDS011;8531;48.078;11.968;2024-02-28T09:34:49;36.35;;;23.63;;
16828;SDS011;8531;48.078;11.968;2024-02-28T09:37:14;37.92;;;24.23;;
16828;SDS011;8531;48.078;11.968;2024-02-28T09:39:42;33.80;;;23.02;;
16828;SDS011;8531;48.078;11.968;2024-02-28T09:42:08;36.08;;;23.25;;
16828;SDS011;8531;48.078;11.968;2024-02-28T09:44:35;37.45;;;23.85;;
16828;SDS011;8531;48.078;11.968;2024-02-28T09:47:02;35.13;;;23.73;;
16828;SDS011;8531;48.078;11.968;2024-02-28T09:49:28;40.38;;;24.42;;
16828;SDS011;8531;48.078;11.968;2024-02-28T09:51:57;37.10;;;23.15;;
16828;SDS011;8531;48.078;11.968;2024-02-28T09:54:24;41.97;;;25.33;;
16828;SDS011;8531;48.078;11.968;2024-02-28T09:56:50;35.35;;;23.15;;
16828;SDS011;8531;48.078;11.968;2024-02-28T09:59:19;33.47;;;22.60;;
16828;SDS011;8531;48.078;11.968;2024-02-28T10:01:47;35.90;;;22.80;;
16828;SDS011;8531;48.078;11.968;2024-02-28T10:04:28;34.75;;;22.77;;
16828;SDS011;8531;48.078;11.968;2024-02-28T10:06:55;38.10;;;24.60;;
16828;SDS011;8531;48.078;11.968;2024-02-28T10:09:21;39.38;;;25.02;;
16828;SDS011;8531;48.078;11.968;2024-02-28T10:11:47;43.47;;;24.52;;
16828;SDS011;8531;48.078;11.968;2024-02-28T10:14:16;34.40;;;23.65;;
16828;SDS011;8531;48.078;11.968;2024-02-28T10:16:43;42.45;;;23.77;;
16828;SDS011;8531;48.078;11.968;2024-02-28T10:19:09;40.90;;;24.20;;
16828;SDS011;8531;48.078;11.968;2024-02-28T10:21:35;34.72;;;22.83;;
16828;SDS011;8531;48.078;11.968;2024-02-28T10:24:00;42.63;;;24.63;;
16828;SDS011;8531;48.078;11.968;2024-02-28T10:26:26;37.80;;;24.05;;
16828;SDS011;8531;48.078;11.968;2024-02-28T10:28:52;36.42;;;24.20;;
16828;SDS011;8531;48.078;11.968;2024-02-28T10:31:17;39.55;;;25.33;;
16828;SDS011;8531;48.078;11.968;2024-02-28T10:33:46;41.17;;;24.60;;
16828;SDS011;8531;48.078;11.968;2024-02-28T10:36:11;37.33;;;23.58;;
16828;SDS011;8531;48.078;11.968;2024-02-28T10:38:37;47.15;;;26.10;;
16828;SDS011;8531;48.078;11.968;2024-02-28T10:41:03;36.53;;;23.20;;
16828;SDS011;8531;48.078;11.968;2024-02-28T10:43:29;39.90;;;24.38;;
16828;SDS011;8531;48.078;11.968;2024-02-28T10:45:58;41.13;;;24.90;;
16828;SDS011;8531;48.078;11.968;2024-02-28T10:48:25;41.75;;;25.58;;
16828;SDS011;8531;48.078;11.968;2024-02-28T10:50:51;39.60;;;25.33;;
16828;SDS011;8531;48.078;11.968;2024-02-28T10:53:20;38.65;;;24.33;;
16828;SDS011;8531;48.078;11.968;2024-02-28T10:55:49;36.58;;;22.80;;
16828;SDS011;8531;48.078;11.968;2024-02-28T10:58:16;35.90;;;23.85;;
16828;SDS011;8531;48.078;11.968;2024-02-28T11:00:44;38.05;;;24.20;;
16828;SDS011;8531;48.078;11.968;2024-02-28T11:03:11;40.20;;;24.95;;
16828;SDS011;8531;48.078;11.968;2024-02-28T11:05:41;40.00;;;24.38;;
16828;SDS011;8531;48.078;11.968;2024-02-28T11:08:10;41.28;;;25.20;;
16828;SDS011;8531;48.078;11.968;2024-02-28T11:10:40;41.65;;;24.55;;
16828;SDS011;8531;48.078;11.968;2024-02-28T11:13:07;36.55;;;24.25;;
16828;SDS011;8531;48.078;11.968;2024-02-28T11:15:35;40.78;;;25.15;;
16828;SDS011;8531;48.078;11.968;2024-02-28T11:18:07;43.08;;;26.23;;
16828;SDS011;8531;48.078;11.968;2024-02-28T11:20:35;36.58;;;24.73;;
16828;SDS011;8531;48.078;11.968;2024-02-28T11:23:01;39.28;;;23.92;;
16828;SDS011;8531;48.078;11.968;2024-02-28T11:25:27;38.03;;;23.90;;
16828;SDS011;8531;48.078;11.968;2024-02-28T11:27:53;35.83;;;23.90;;
16828;SDS011;8531;48.078;11.968;2024-02-28T11:30:19;37.80;;;23.23;;
16828;SDS011;8531;48.078;11.968;2024-02-28T11:32:45;36.83;;;24.65;;
16828;SDS011;8531;48.078;11.968;2024-02-28T11:35:11;34.85;;;23.42;;
16828;SDS011;8531;48.078;11.968;2024-02-28T11:37:39;35.90;;;23.98;;
16828;SDS011;8531;48.078;11.968;2024-02-28T11:40:08;36.88;;;23.77;;
16828;SDS011;8531;48.078;11.968;2024-02-28T11:42:38;35.10;;;22.80;;
16828;SDS011;8531;48.078;11.968;2024-02-28T11:45:09;44.20;;;25.15;;
16828;SDS011;8531;48.078;11.968;2024-02-28T11:47:35;37.65;;;24.92;;
16828;SDS011;8531;48.078;11.968;2024-02-28T11:50:01;38.17;;;25.08;;
16828;SDS011;8531;48.078;11.968;2024-02-28T11:52:31;37.53;;;24.35;;
16828;SDS011;8531;48.078;11.968;2024-02-28T11:54:57;37.10;;;24.27;;
16828;SDS011;8531;48.078;11.968;2024-02-28T11:57:22;35.38;;;24.05;;
16828;SDS011;8531;48.078;11.968;2024-02-28T11:59:48;35.47;;;23.38;;
16828;SDS011;8531;48.078;11.968;2024-02-28T12:02:14;36.08;;;23.85;;
16828;SDS011;8531;48.078;11.968;2024-02-28T12:04:41;39.03;;;23.77;;
16828;SDS011;8531;48.078;11.968;2024-02-28T12:07:11;38.25;;;25.05;;
16828;SDS011;8531;48.078;11.968;2024-02-28T12:09:36;33.78;;;22.42;;
16828;SDS011;8531;48.078;11.968;2024-02-28T12:12:03;39.63;;;24.90;;
16828;SDS011;8531;48.078;11.968;2024-02-28T12:14:32;38.28;;;24.77;;
16828;SDS011;8531;48.078;11.968;2024-02-28T12:17:01;36.00;;;22.25;;
16828;SDS011;8531;48.078;11.968;2024-02-28T12:19:28;33.95;;;22.08;;
16828;SDS011;8531;48.078;11.968;2024-02-28T12:21:54;30.55;;;21.95;;
16828;SDS011;8531;48.078;11.968;2024-02-28T12:24:20;37.10;;;22.23;;
16828;SDS011;8531;48.078;11.968;2024-02-28T12:26:46;36.63;;;23.38;;
16828;SDS011;8531;48.078;11.968;2024-02-28T12:29:12;32.92;;;22.35;;
16828;SDS011;8531;48.078;11.968;2024-02-28T12:31:38;36.50;;;23.98;;
16828;SDS011;8531;48.078;11.968;2024-02-28T12:34:04;33.67;;;22.48;;
16828;SDS011;8531;48.078;11.968;2024-02-28T12:36:30;32.08;;;22.75;;
16828;SDS011;8531;48.078;11.968;2024-02-28T12:38:57;31.05;;;22.45;;
16828;SDS011;8531;48.078;11.968;2024-02-28T12:41:24;27.17;;;21.00;;
16828;SDS011;8531;48.078;11.968;2024-02-28T12:43:53;32.53;;;21.95;;
16828;SDS011;8531;48.078;11.968;2024-02-28T12:46:19;36.88;;;22.35;;
16828;SDS011;8531;48.078;11.968;2024-02-28T12:48:45;29.35;;;20.85;;
16828;SDS011;8531;48.078;11.968;2024-02-28T12:51:20;29.27;;;21.83;;
16828;SDS011;8531;48.078;11.968;2024-02-28T12:54:02;34.13;;;21.52;;
16828;SDS011;8531;48.078;11.968;2024-02-28T12:56:27;30.80;;;21.13;;
16828;SDS011;8531;48.078;11.968;2024-02-28T12:58:53;29.88;;;21.48;;
16828;SDS011;8531;48.078;11.968;2024-02-28T13:01:19;29.85;;;20.88;;
16828;SDS011;8531;48.078;11.968;2024-02-28T13:03:44;28.08;;;20.13;;
16828;SDS011;8531;48.078;11.968;2024-02-28T13:06:10;27.25;;;19.70;;
16828;SDS011;8531;48.078;11.968;2024-02-28T13:08:36;29.75;;;21.40;;
16828;SDS011;8531;48.078;11.968;2024-02-28T13:11:01;27.88;;;20.27;;
16828;SDS011;8531;48.078;11.968;2024-02-28T13:13:28;29.92;;;21.75;;
16828;SDS011;8531;48.078;11.968;2024-02-28T13:15:54;35.95;;;21.65;;
16828;SDS011;8531;48.078;11.968;2024-02-28T13:18:19;32.47;;;20.83;;
16828;SDS011;8531;48.078;11.968;2024-02-28T13:20:46;25.05;;;18.30;;
16828;SDS011;8531;48.078;11.968;2024-02-28T13:23:13;26.60;;;20.23;;
16828;SDS011;8531;48.078;11.968;2024-02-28T13:25:39;25.40;;;19.73;;
16828;SDS011;8531;48.078;11.968;2024-02-28T13:28:04;25.13;;;18.45;;
16828;SDS011;8531;48.078;11.968;2024-02-28T13:30:30;25.52;;;18.63;;
16828;SDS011;8531;48.078;11.968;2024-02-28T13:32:56;25.08;;;18.48;;
16828;SDS011;8531;48.078;11.968;2024-02-28T13:35:22;31.25;;;20.85;;
16828;SDS011;8531;48.078;11.968;2024-02-28T13:37:47;24.10;;;17.58;;
16828;SDS011;8531;48.078;11.968;2024-02-28T13:40:13;26.90;;;18.70;;
16828;SDS011;8531;48.078;11.968;2024-02-28T13:42:39;27.35;;;19.15;;
16828;SDS011;8531;48.078;11.968;2024-02-28T13:45:05;26.85;;;19.40;;
16828;SDS011;8531;48.078;11.968;2024-02-28T13:47:34;27.73;;;19.65;;
16828;SDS011;8531;48.078;11.968;2024-02-28T13:50:00;29.67;;;21.35;;
16828;SDS011;8531;48.078;11.968;2024-02-28T13:52:27;27.20;;;18.58;;
16828;SDS011;8531;48.078;11.968;2024-02-28T13:54:52;30.05;;;20.55;;
16828;SDS011;8531;48.078;11.968;2024-02-28T13:57:18;30.77;;;19.27;;
16828;SDS011;8531;48.078;11.968;2024-02-28T13:59:43;26.60;;;19.65;;
16828;SDS011;8531;48.078;11.968;2024-02-28T14:02:14;34.33;;;20.65;;
16828;SDS011;8531;48.078;11.968;2024-02-28T14:04:40;27.63;;;19.67;;
16828;SDS011;8531;48.078;11.968;2024-02-28T14:07:08;27.55;;;19.65;;
16828;SDS011;8531;48.078;11.968;2024-02-28T14:09:34;33.63;;;20.80;;
16828;SDS011;8531;48.078;11.968;2024-02-28T14:11:59;28.25;;;20.60;;
16828;SDS011;8531;48.078;11.968;2024-02-28T14:14:25;29.88;;;21.33;;
16828;SDS011;8531;48.078;11.968;2024-02-28T14:16:52;22.67;;;17.90;;